Time;durP1;ratioP1;P1;durP2;ratioP2;P2;SDS_P1;SDS_P2;PMS_P1;PMS_P2;Temp;Humidity;BMP_temperature;BMP_pressure;BME280_temperature;BME280_humidity;BME280_pressure;Samples;Min_cycle;Max_cycle;Signal;HPM_P1;HPM_P2
2022/07/25 00:02:51;;;;;;;;;;;23.00;36.30;;;20.08;38.77;101105.72;12254334;19;20024;-91
2022/07/25 00:06:53;;;;;;;;;;;22.90;36.20;;;20.57;38.62;101182.72;12257287;19;19939;-91
2022/07/25 00:10:54;;;;;;;;;;;22.80;36.20;;;20.26;38.58;101129.75;12257310;19;19915;-92
2022/07/25 00:14:56;;;;;;;;;;;22.80;36.40;;;20.54;38.78;101170.59;12254773;19;20325;-91
2022/07/25 00:18:58;;;;;;;;;;;22.70;36.30;;;20.65;38.75;101193.50;12254444;19;19929;-91
2022/07/25 00:22:59;;;;;;;;;;;22.60;36.30;;;20.33;38.78;101142.34;12251519;19;19929;-91
2022/07/25 00:27:01;;;;;;;;;;;22.60;36.30;;;20.45;39.05;101182.84;12253284;19;19935;-90
2022/07/25 00:31:03;;;;;;;;;;;22.60;36.40;;;20.04;39.09;101112.28;12253614;19;20262;-90
2022/07/25 00:35:05;;;;;;;;;;;22.50;36.30;;;20.36;38.83;101178.38;12251184;19;20590;-90
2022/07/25 00:39:06;;;;;;;;;;;22.50;36.40;;;20.00;38.90;101127.59;12254140;19;19983;-91
2022/07/25 00:43:08;;;;;;;;;;;22.40;36.30;;;19.94;39.06;101122.84;12251265;19;19943;-91
2022/07/25 00:47:10;;;;;;;;;;;22.50;36.40;;;19.65;39.21;101091.75;12253584;19;19965;-91
2022/07/25 00:51:11;;;;;;;;;;;22.20;36.40;;;19.95;38.86;101140.44;12251765;19;19911;-90
2022/07/25 00:55:13;;;;;;;;;;;22.60;36.50;;;20.33;39.32;101194.53;12249315;19;19970;-91
2022/07/25 00:59:16;;;;;;;;;;;22.20;36.40;;;19.83;39.22;101115.84;12254429;19;20181;-92
2022/07/25 01:03:17;;;;;;;;;;;22.40;36.60;;;19.71;39.34;101116.91;12250524;19;19974;-91
2022/07/25 01:07:19;;;;;;;;;;;22.50;36.70;;;19.65;38.89;101106.84;12253294;19;19927;-91
2022/07/25 01:11:21;;;;;;;;;;;22.20;36.50;;;19.12;39.28;101025.78;12252368;19;20393;-91
2022/07/25 01:15:24;;;;;;;;;;;22.00;36.50;;;19.31;39.34;101069.19;12249773;19;19936;-91
2022/07/25 01:19:25;;;;;;;;;;;21.90;36.60;;;19.17;39.61;101062.44;12252624;19;19914;-91
2022/07/25 01:23:27;;;;;;;;;;;21.90;36.60;;;19.24;39.64;101066.25;12249111;19;19919;-91
2022/07/25 01:27:30;;;;;;;;;;;21.70;36.60;;;19.50;39.41;101114.31;12250750;19;20291;-91
2022/07/25 01:31:31;;;;;;;;;;;22.10;36.90;;;19.16;39.81;101074.84;12250491;19;19915;-91
2022/07/25 01:35:33;;;;;;;;;;;21.60;36.60;;;19.09;39.61;101060.47;12246919;19;19919;-91
2022/07/25 01:39:35;;;;;;;;;;;21.60;36.70;;;18.88;39.84;101034.03;12251164;19;20341;-91
2022/07/25 01:43:36;;;;;;;;;;;21.60;36.80;;;18.93;39.82;101045.06;12250616;19;19939;-91
2022/07/25 01:47:38;;;;;;;;;;;21.50;36.80;;;19.02;39.81;101062.78;12251985;19;19918;-92
2022/07/25 01:51:40;;;;;;;;;;;21.50;36.70;;;19.41;39.52;101120.41;12245998;19;19923;-91
2022/07/25 01:55:44;;;;;;;;;;;21.50;36.70;;;19.26;39.76;101106.69;12248940;19;19911;-91
2022/07/25 01:59:45;;;;;;;;;;;21.40;36.80;;;19.06;39.69;101071.31;12250496;19;19939;-91
2022/07/25 02:03:47;;;;;;;;;;;21.40;36.80;;;19.28;39.85;101102.09;12248233;19;19907;-91
2022/07/25 02:07:48;;;;;;;;;;;21.40;36.90;;;19.18;39.70;101086.16;12248862;19;19911;-92
2022/07/25 02:11:50;;;;;;;;;;;21.70;37.00;;;19.40;39.96;101122.22;12244948;19;20337;-91
2022/07/25 02:15:51;;;;;;;;;;;21.30;36.90;;;19.25;39.74;101099.69;12248763;19;19922;-91
2022/07/25 02:19:53;;;;;;;;;;;21.40;37.00;;;18.93;40.02;101050.34;12249833;19;19907;-90
2022/07/25 02:23:54;;;;;;;;;;;21.30;36.90;;;19.16;39.74;101093.38;12247004;19;19919;-92
2022/07/25 02:27:56;;;;;;;;;;;21.40;37.00;;;19.21;39.93;101103.59;12248337;19;19918;-90
2022/07/25 02:31:58;;;;;;;;;;;21.20;37.00;;;19.12;39.82;101085.81;12245110;19;19907;-90
2022/07/25 02:35:59;;;;;;;;;;;21.20;37.10;;;18.95;40.27;101074.88;12244549;19;20253;-91
2022/07/25 02:40:01;;;;;;;;;;;21.10;37.10;;;18.50;39.99;100990.47;12245397;19;19925;-91
2022/07/25 02:44:04;;;;;;;;;;;21.10;37.10;;;18.94;40.14;101086.44;12242443;19;19987;-91
2022/07/25 02:48:06;;;;;;;;;;;21.10;37.20;;;18.84;40.34;101076.75;12245551;19;19921;-91
2022/07/25 02:52:08;;;;;;;;;;;21.00;37.10;;;18.73;40.26;101059.09;12244612;19;20385;-90
2022/07/25 02:56:09;;;;;;;;;;;21.00;37.10;;;18.86;40.42;101080.94;12244276;19;19998;-92
2022/07/25 03:00:12;;;;;;;;;;;21.00;37.30;;;18.82;40.25;101074.22;12246038;19;20650;-90
2022/07/25 03:04:14;;;;;;;;;;;20.90;37.20;;;18.77;40.36;101074.63;12243242;19;20265;-91
2022/07/25 03:08:16;;;;;;;;;;;20.90;37.30;;;18.79;40.50;101079.78;12245921;19;19982;-93
2022/07/25 03:12:18;;;;;;;;;;;20.80;37.30;;;18.72;40.56;101071.50;12243008;19;19974;-90
2022/07/25 03:16:20;;;;;;;;;;;21.00;37.30;;;18.64;40.62;101057.25;12241954;19;19930;-92
2022/07/25 03:20:21;;;;;;;;;;;20.80;37.20;;;18.32;40.57;100998.13;12245039;19;19998;-92
2022/07/25 03:24:23;;;;;;;;;;;20.70;37.40;;;18.68;40.72;101053.34;12241288;19;19940;-90
2022/07/25 03:28:25;;;;;;;;;;;20.70;37.40;;;18.36;40.61;100990.78;12244959;19;19945;-92
2022/07/25 03:32:26;;;;;;;;;;;20.90;37.60;;;18.74;40.61;101063.41;12244893;19;19914;-90
2022/07/25 03:36:28;;;;;;;;;;;20.70;37.80;;;18.74;40.64;101047.53;12242543;19;19978;-92
2022/07/25 03:40:30;;;;;;;;;;;20.70;37.50;;;18.66;40.79;101028.84;12244641;19;19910;-92
2022/07/25 03:44:31;;;;;;;;;;;20.70;37.50;;;18.70;40.64;101035.56;12244727;19;19926;-90
2022/07/25 03:48:33;;;;;;;;;;;20.70;37.60;;;18.73;40.92;101027.34;12245215;19;19953;-91
2022/07/25 03:52:37;;;;;;;;;;;20.70;37.60;;;18.38;40.76;100970.34;12242469;19;19920;-92
2022/07/25 03:56:44;;;;;;;;;;;21.00;37.70;;;18.63;40.73;101000.00;12244442;19;20324;-91
2022/07/25 04:00:47;;;;;;;;;;;20.70;37.50;;;18.77;40.80;101015.59;12256860;19;19919;-91
2022/07/25 04:04:49;;;;;;;;;;;21.00;37.80;;;18.83;40.99;101012.41;12256863;19;19921;-91
2022/07/25 04:08:51;;;;;;;;;;;20.80;37.70;;;18.72;40.83;100993.94;12256671;19;19914;-91
2022/07/25 04:12:53;;;;;;;;;;;20.80;37.80;;;18.87;40.88;101005.88;12252693;19;19919;-92
2022/07/25 04:16:54;;;;;;;;;;;20.80;37.70;;;18.86;40.86;101001.56;12252774;19;20424;-91
2022/07/25 04:20:56;;;;;;;;;;;20.80;37.80;;;18.54;40.89;100944.25;12252788;19;19914;-91
2022/07/25 04:24:57;;;;;;;;;;;21.10;38.00;;;18.85;40.82;100994.59;12252552;19;19919;-91
2022/07/25 04:29:02;;;;;;;;;;;20.90;37.80;;;18.89;40.95;100996.00;12253401;19;19965;-91
2022/07/25 04:33:03;;;;;;;;;;;21.20;38.00;;;19.01;41.09;101008.19;12250051;19;20369;-91
2022/07/25 04:37:05;;;;;;;;;;;21.00;37.90;;;19.04;41.12;100993.00;12248729;19;19919;-92
2022/07/25 04:41:07;;;;;;;;;;;20.90;37.90;;;18.99;40.86;100981.00;12252750;19;19923;-91
2022/07/25 04:45:08;;;;;;;;;;;21.00;37.90;;;19.04;41.18;100982.41;12251736;19;20333;-91
2022/07/25 04:49:10;;;;;;;;;;;21.00;37.90;;;19.05;41.17;100965.56;12252874;19;19914;-92
2022/07/25 04:53:11;;;;;;;;;;;21.00;37.90;;;18.62;41.26;100880.13;12249025;19;19923;-92
2022/07/25 04:57:13;;;;;;;;;;;21.10;38.00;;;19.05;41.16;100931.16;12247791;19;19926;-91
2022/07/25 05:01:14;;;;;;;;;;;21.10;38.00;;;19.05;41.16;100909.97;12250537;19;19971;-91
2022/07/25 05:05:16;;;;;;;;;;;21.20;38.10;;;19.13;41.05;100904.84;12249766;19;19922;-91
2022/07/25 05:09:18;;;;;;;;;;;21.30;38.10;;;19.57;41.28;100950.34;12247737;19;19918;-91
2022/07/25 05:13:19;;;;;;;;;;;21.40;38.10;;;19.66;41.17;100920.44;12249188;19;20318;-92
2022/07/25 05:17:21;;;;;;;;;;;21.50;38.00;;;20.03;41.01;100938.25;12246915;19;19911;-92
2022/07/25 05:21:22;;;;;;;;;;;21.70;38.20;;;20.08;41.03;100917.47;12249490;19;19918;-92
2022/07/25 05:25:24;;;;;;;;;;;22.00;38.30;;;20.01;40.86;100871.28;12250410;19;20406;-91
2022/07/25 05:29:26;;;;;;;;;;;22.00;38.20;;;20.57;41.23;100933.31;12251067;19;19915;-92
2022/07/25 05:33:28;;;;;;;;;;;22.20;38.00;;;20.67;41.22;100919.03;12252994;19;19910;-91
2022/07/25 05:37:29;;;;;;;;;;;22.40;38.10;;;20.87;41.00;100921.59;12249293;19;19956;-91
2022/07/25 05:41:31;;;;;;;;;;;22.80;38.30;;;20.99;40.74;100904.50;12256098;19;19914;-91
2022/07/25 05:45:32;;;;;;;;;;;22.70;38.00;;;21.20;41.06;100902.41;12253106;19;20038;-89
2022/07/25 05:49:33;;;;;;;;;;;22.90;38.20;;;21.57;40.88;100922.72;12252359;19;20553;-90
2022/07/25 05:53:35;;;;;;;;;;;23.00;38.20;;;21.36;40.86;100837.13;12247109;19;19940;-90
2022/07/25 05:57:37;;;;;;;;;;;23.20;38.30;;;22.09;40.68;100888.28;12248683;19;19925;-90
2022/07/25 06:01:39;;;;;;;;;;;23.50;38.40;;;22.12;41.18;100852.56;12248947;19;19947;-91
2022/07/25 06:05:40;;;;;;;;;;;23.80;38.50;;;22.64;41.03;100875.66;12249495;19;19917;-91
2022/07/25 06:09:42;;;;;;;;;;;24.10;38.40;;;22.67;40.72;100833.56;12252445;19;20294;-90
2022/07/25 06:13:43;;;;;;;;;;;24.40;38.30;;;23.15;41.00;100852.53;12248816;19;19948;-87
2022/07/25 06:17:49;;;;;;;;;;;24.70;38.20;;;23.65;40.98;100875.56;12246712;19;19929;-90
2022/07/25 06:21:50;;;;;;;;;;;25.10;38.10;;;24.10;40.61;100890.25;12251111;19;19915;-89
2022/07/25 06:25:51;;;;;;;;;;;25.40;38.10;;;24.29;40.65;100886.38;12249363;19;19956;-89
2022/07/25 06:29:53;;;;;;;;;;;25.60;38.00;;;24.50;40.43;100859.97;12249222;19;20349;-90
2022/07/25 06:33:54;;;;;;;;;;;25.90;37.90;;;24.78;40.59;100869.38;12253175;19;20968;-88
2022/07/25 06:37:56;;;;;;;;;;;26.20;37.80;;;25.10;40.10;100877.22;12254697;19;19915;-90
2022/07/25 06:41:58;;;;;;;;;;;26.40;37.70;;;25.09;39.95;100831.97;12255343;19;19918;-92
2022/07/25 06:46:08;;;;;;;;;;;26.60;37.70;;;25.41;39.94;100846.13;12254556;19;19930;-90
2022/07/25 06:50:12;;;;;;;;;;;26.90;37.70;;;25.56;40.26;100844.34;12256929;19;20535;-91
2022/07/25 06:54:14;;;;;;;;;;;27.10;37.60;;;25.51;39.79;100801.28;12249320;19;19926;-90
2022/07/25 06:58:15;;;;;;;;;;;27.30;37.60;;;25.90;40.15;100832.38;12253344;19;19911;-90
2022/07/25 07:02:17;;;;;;;;;;;27.50;37.60;;;25.88;39.63;100797.78;12246469;19;19919;-89
2022/07/25 07:06:18;;;;;;;;;;;27.60;37.50;;;26.28;39.85;100833.16;12246114;19;19934;-92
2022/07/25 07:10:21;;;;;;;;;;;27.80;37.50;;;26.43;39.82;100820.56;12254260;19;19936;-90
2022/07/25 07:14:22;;;;;;;;;;;28.00;37.40;;;26.55;39.68;100812.94;12241619;19;19940;-89
2022/07/25 07:18:24;;;;;;;;;;;28.10;37.40;;;26.83;39.63;100825.59;12244856;19;19927;-91
2022/07/25 07:22:25;;;;;;;;;;;28.30;37.50;;;27.06;39.68;100830.81;12243241;19;19926;-90
2022/07/25 07:26:27;;;;;;;;;;;28.50;37.30;;;26.91;39.22;100764.69;12245618;19;19919;-90
2022/07/25 07:30:29;;;;;;;;;;;28.60;37.30;;;27.16;39.20;100769.66;12246274;19;20366;-89
2022/07/25 07:34:31;;;;;;;;;;;28.80;37.20;;;27.48;39.26;100796.97;12258066;19;20342;-91
2022/07/25 07:38:32;;;;;;;;;;;29.20;37.30;;;27.42;39.47;100747.63;12258064;19;20266;-91
2022/07/25 07:42:45;;;;;;;;;;;29.20;37.30;;;27.95;39.22;100795.47;12257362;19;20273;-89
2022/07/25 07:46:46;;;;;;;;;;;29.40;37.20;;;27.94;39.16;100754.38;12257052;19;19907;-89
2022/07/25 07:50:48;;;;;;;;;;;29.60;37.20;;;28.34;39.09;100780.63;12257457;19;19937;-90
2022/07/25 07:59:10;;;;;;;;;;;30.00;37.00;;;28.85;38.79;100781.00;12256290;19;20269;-89
2022/07/25 08:03:12;;;;;;;;;;;30.20;37.20;;;29.17;38.68;100793.94;12252485;19;19918;-90
2022/07/25 08:07:13;;;;;;;;;;;30.50;37.20;;;29.34;38.88;100781.72;12254422;19;19919;-90
2022/07/25 08:11:15;;;;;;;;;;;30.70;37.00;;;29.62;38.64;100772.59;12254598;19;20251;-89
2022/07/25 08:15:17;;;;;;;;;;;30.90;37.00;;;29.91;38.22;100782.09;12252323;19;19950;-90
2022/07/25 08:19:19;;;;;;;;;;;31.10;37.10;;;29.91;38.23;100744.41;12257206;19;19919;-89
2022/07/25 08:23:21;;;;;;;;;;;31.40;36.80;;;30.24;38.38;100754.25;12252041;19;19989;-91
2022/07/25 08:27:22;;;;;;;;;;;31.60;36.90;;;30.31;37.79;100731.63;12252587;19;19930;-89
2022/07/25 08:31:25;;;;;;;;;;;31.90;37.10;;;30.75;37.77;100778.47;12252422;19;19919;-89
2022/07/25 08:35:27;;;;;;;;;;;32.00;37.20;;;30.76;37.54;100757.69;12254212;19;19918;-89
2022/07/25 08:39:28;;;;;;;;;;;32.20;36.60;;;30.95;37.73;100750.59;12259464;19;19919;-90
2022/07/25 08:43:33;;;;;;;;;;;32.40;36.30;;;31.05;37.60;100749.03;12253751;19;19918;-88
2022/07/25 08:47:35;;;;;;;;;;;32.50;36.50;;;31.21;37.48;100753.06;12254961;19;19935;-88
2022/07/25 08:51:38;;;;;;;;;;;32.60;36.50;;;31.41;37.34;100752.09;12256921;19;20725;-89
2022/07/25 08:55:41;;;;;;;;;;;32.80;36.40;;;31.51;37.23;100725.41;12258798;19;19944;-89
2022/07/25 08:59:43;;;;;;;;;;;32.90;36.30;;;31.90;37.26;100758.47;12259649;19;19907;-89
2022/07/25 09:03:45;;;;;;;;;;;33.10;36.30;;;31.89;36.96;100713.56;12254152;19;19911;-90
2022/07/25 09:07:46;;;;;;;;;;;33.30;36.40;;;32.08;36.63;100720.66;12255561;19;19943;-91
2022/07/25 09:11:49;;;;;;;;;;;33.50;36.00;;;32.04;36.38;100687.03;12255426;19;19911;-90
2022/07/25 09:15:52;;;;;;;;;;;33.60;36.20;;;32.49;36.53;100726.41;12253223;19;19921;-91
2022/07/25 09:19:55;;;;;;;;;;;33.80;36.30;;;32.25;35.98;100658.69;12254127;19;20280;-90
2022/07/25 09:24:07;;;;;;;;;;;34.00;36.40;;;32.47;36.33;100664.44;12253819;19;19936;-89
2022/07/25 09:28:16;;;;;;;;;;;34.10;35.90;;;33.01;35.85;100713.94;12255964;19;19935;-90
2022/07/25 09:32:22;;;;;;;;;;;34.20;35.80;;;33.02;36.22;100676.88;12252708;19;19926;-90
2022/07/25 09:36:23;;;;;;;;;;;34.40;35.80;;;33.22;35.64;100685.50;12252663;19;19919;-89
2022/07/25 09:40:24;;;;;;;;;;;34.70;35.80;;;33.24;35.42;100658.16;12253532;19;19911;-90
2022/07/25 09:44:29;;;;;;;;;;;34.80;36.30;;;33.55;35.57;100672.44;12248202;19;19931;-89
2022/07/25 09:48:31;;;;;;;;;;;34.90;35.60;;;33.67;35.24;100673.22;12253387;19;19922;-92
2022/07/25 09:52:33;;;;;;;;;;;35.00;35.40;;;33.37;35.21;100598.34;12252208;19;19943;-90
2022/07/25 09:56:34;;;;;;;;;;;35.20;35.80;;;33.75;35.10;100623.25;12252339;19;19921;-92
2022/07/25 10:00:38;;;;;;;;;;;35.30;35.40;;;33.79;35.12;100598.16;12255974;19;20433;-91
2022/07/25 10:04:58;;;;;;;;;;;35.50;35.60;;;34.02;35.07;100604.53;12260686;19;19923;-91
2022/07/25 10:08:59;;;;;;;;;;;35.60;35.70;;;34.41;35.18;100637.25;12258789;19;20329;-90
2022/07/25 10:13:06;;;;;;;;;;;35.80;35.50;;;34.62;34.87;100641.97;12254770;19;19919;-88
2022/07/25 10:17:18;;;;;;;;;;;35.90;35.40;;;34.70;34.59;100624.44;12251927;19;19914;-90
2022/07/25 10:21:21;;;;;;;;;;;36.00;35.90;;;34.68;34.63;100605.72;12252973;19;19920;-89
2022/07/25 10:25:23;;;;;;;;;;;36.20;35.10;;;34.86;34.46;100606.50;12251422;19;19934;-91
2022/07/25 10:29:33;;;;;;;;;;;36.20;35.40;;;35.10;34.45;100610.69;12254641;19;19994;-90
2022/07/25 10:33:41;;;;;;;;;;;36.30;35.20;;;35.11;34.41;100576.25;12253478;19;19945;-91
2022/07/25 10:37:44;;;;;;;;;;;36.50;34.90;;;35.24;34.25;100571.25;12252554;19;20313;-92
2022/07/25 10:41:53;;;;;;;;;;;36.60;34.90;;;35.30;34.27;100544.97;12252581;19;19946;-91
2022/07/25 10:45:58;;;;;;;;;;;36.80;34.70;;;35.49;33.70;100547.38;12250633;19;19945;-89
2022/07/25 10:50:02;;;;;;;;;;;36.90;35.10;;;35.26;33.40;100489.53;12250221;19;19970;-90
2022/07/25 10:54:16;;;;;;;;;;;37.10;34.80;;;35.89;33.63;100572.28;12248925;19;19918;-91
2022/07/25 10:58:17;;;;;;;;;;;37.00;34.30;;;35.73;33.57;100518.00;12246929;19;19919;-91
2022/07/25 11:02:19;;;;;;;;;;;37.20;34.70;;;35.80;32.62;100515.91;12247235;19;19918;-91
2022/07/25 11:06:36;;;;;;;;;;;37.30;34.20;;;36.22;32.49;100559.56;12250912;19;19911;-90
2022/07/25 11:10:38;;;;;;;;;;;37.40;33.90;;;35.89;32.71;100473.63;12261219;19;19922;-89
2022/07/25 11:14:41;;;;;;;;;;;37.50;33.90;;;36.46;32.39;100545.59;12260640;19;19936;-88
2022/07/25 11:18:43;;;;;;;;;;;37.60;34.40;;;36.34;32.45;100524.81;12262646;19;19922;-89
2022/07/25 11:22:52;;;;;;;;;;;37.70;34.10;;;36.25;32.72;100509.25;12259804;19;19926;-90
2022/07/25 11:26:54;;;;;;;;;;;37.70;33.50;;;36.34;32.43;100515.84;12261038;19;19919;-91
2022/07/25 11:31:02;;;;;;;;;;;37.80;34.40;;;36.30;32.57;100490.25;12260064;19;19911;-89
2022/07/25 11:35:04;;;;;;;;;;;37.90;34.10;;;36.42;32.32;100498.22;12262038;19;19923;-89
2022/07/25 11:39:05;;;;;;;;;;;37.90;33.50;;;36.60;32.19;100519.59;12262254;19;19974;-88
2022/07/25 11:43:17;;;;;;;;;;;37.90;33.90;;;36.53;31.85;100489.84;12256354;19;19915;-92
2022/07/25 11:47:31;;;;;;;;;;;38.00;34.00;;;36.36;32.38;100448.41;12261313;19;19921;-88
2022/07/25 11:51:37;;;;;;;;;;;38.00;33.60;;;36.36;32.23;100429.38;12256295;19;19948;-89
2022/07/25 11:55:41;;;;;;;;;;;38.00;33.30;;;36.74;31.83;100476.38;12257735;19;20333;-92
2022/07/25 11:59:42;;;;;;;;;;;38.10;33.90;;;36.39;31.75;100407.06;12255624;19;19919;-90
2022/07/25 12:03:45;;;;;;;;;;;38.20;33.40;;;36.98;31.65;100476.78;12252007;19;19911;-91
2022/07/25 12:07:51;;;;;;;;;;;38.20;33.00;;;37.18;31.46;100473.31;12255784;19;19911;-90
2022/07/25 12:12:02;;;;;;;;;;;38.30;32.90;;;37.27;31.55;100468.16;12253007;19;19918;-88
2022/07/25 12:16:03;;;;;;;;;;;38.50;33.70;;;37.26;31.45;100456.44;12252096;19;19919;-90
2022/07/25 12:20:12;;;;;;;;;;;38.50;33.10;;;37.34;31.26;100447.75;12252908;19;19922;-90
2022/07/25 12:24:14;;;;;;;;;;;38.60;33.20;;;37.30;30.63;100427.59;12250166;19;20337;-92
2022/07/25 12:28:15;;;;;;;;;;;38.70;33.10;;;37.06;30.68;100374.72;12253520;19;19919;-91
2022/07/25 12:32:17;;;;;;;;;;;38.70;32.70;;;37.53;30.69;100436.34;12249204;19;19940;-88
2022/07/25 12:36:18;;;;;;;;;;;38.70;32.60;;;37.62;30.94;100440.19;12246197;19;19930;-90
2022/07/25 12:40:20;;;;;;;;;;;38.80;32.60;;;37.59;30.56;100421.63;12250573;19;19923;-91
2022/07/25 12:44:21;;;;;;;;;;;38.90;33.00;;;37.69;30.47;100408.00;12244883;19;19922;-91
2022/07/25 12:48:22;;;;;;;;;;;38.90;32.60;;;37.73;30.45;100403.66;12253747;19;19951;-90
2022/07/25 12:52:24;;;;;;;;;;;39.00;32.60;;;37.70;30.57;100398.78;12255682;19;19946;-90
2022/07/25 12:56:25;;;;;;;;;;;39.00;32.40;;;37.76;30.55;100403.13;12251721;19;20684;-91
2022/07/25 13:00:27;;;;;;;;;;;39.20;32.50;;;37.82;30.11;100393.03;12253222;19;19999;-91
2022/07/25 13:04:29;;;;;;;;;;;39.00;32.50;;;37.75;30.22;100387.03;12251624;19;19938;-88
2022/07/25 13:08:30;;;;;;;;;;;39.10;32.40;;;37.75;30.18;100384.28;12250254;19;19926;-91
2022/07/25 13:12:32;;;;;;;;;;;39.00;32.30;;;37.68;29.81;100372.88;12247706;19;19926;-89
2022/07/25 13:16:36;;;;;;;;;;;39.00;32.20;;;37.68;29.77;100383.78;12248417;19;19932;-89
2022/07/25 13:20:37;;;;;;;;;;;39.10;32.30;;;37.39;29.86;100341.50;12249527;19;20482;-89
2022/07/25 13:24:39;;;;;;;;;;;39.00;32.40;;;37.18;29.46;100331.69;12253047;19;19926;-88
2022/07/25 13:28:40;;;;;;;;;;;38.90;32.20;;;37.36;29.51;100350.22;12247368;19;19926;-90
2022/07/25 13:32:42;;;;;;;;;;;38.80;31.90;;;37.29;29.68;100327.88;12248867;19;19925;-90
2022/07/25 13:36:43;;;;;;;;;;;38.70;31.90;;;37.26;29.67;100314.81;12248646;19;19927;-90
2022/07/25 13:40:44;;;;;;;;;;;38.70;32.00;;;37.45;29.64;100341.50;12247836;19;19921;-90
2022/07/25 13:44:46;;;;;;;;;;;38.80;32.20;;;37.35;29.58;100309.66;12250708;19;20318;-91
2022/07/25 13:48:47;;;;;;;;;;;38.70;32.10;;;37.44;29.43;100337.97;12251172;19;19919;-89
2022/07/25 13:52:49;;;;;;;;;;;38.50;31.80;;;37.34;29.58;100303.38;12245184;19;19919;-90
2022/07/25 13:56:50;;;;;;;;;;;38.70;31.60;;;37.22;29.56;100286.50;12245269;19;19932;-89
2022/07/25 14:00:51;;;;;;;;;;;38.70;31.60;;;37.42;29.64;100300.09;12247947;19;20239;-88
2022/07/25 14:04:53;;;;;;;;;;;38.70;31.60;;;37.58;29.55;100313.72;12247219;19;20231;-89
2022/07/25 14:08:54;;;;;;;;;;;38.90;32.30;;;37.56;29.37;100294.09;12247409;19;19926;-91
2022/07/25 14:12:56;;;;;;;;;;;38.80;31.70;;;37.64;29.41;100286.19;12243202;19;19926;-90
2022/07/25 14:16:57;;;;;;;;;;;38.90;31.60;;;37.71;28.92;100280.47;12243480;19;20305;-89
2022/07/25 14:20:59;;;;;;;;;;;38.90;31.80;;;37.69;28.95;100282.63;12243721;19;19930;-91
2022/07/25 14:25:01;;;;;;;;;;;38.90;32.00;;;37.66;28.64;100272.28;12244239;19;20520;-88
2022/07/25 14:29:10;;;;;;;;;;;38.90;31.10;;;37.56;29.18;100261.41;12243144;19;20215;-90
2022/07/25 14:33:11;;;;;;;;;;;38.90;31.20;;;37.71;28.31;100280.47;12245659;19;19965;-89
2022/07/25 14:37:13;;;;;;;;;;;38.90;31.50;;;37.58;28.44;100259.22;12243812;19;19919;-89
2022/07/25 14:41:15;;;;;;;;;;;38.90;31.20;;;37.57;28.18;100252.97;12246050;19;20265;-90
2022/07/25 14:45:17;;;;;;;;;;;38.90;31.60;;;37.38;27.86;100225.47;12247204;19;19915;-89
2022/07/25 14:49:19;;;;;;;;;;;38.90;31.20;;;37.62;28.35;100254.88;12246853;19;19944;-89
2022/07/25 14:53:21;;;;;;;;;;;38.90;31.10;;;37.72;28.50;100241.19;12242382;19;19914;-90
2022/07/25 14:57:22;;;;;;;;;;;38.90;31.10;;;37.61;28.46;100204.97;12242635;19;19915;-89
2022/07/25 15:01:24;;;;;;;;;;;39.00;31.20;;;37.66;28.43;100193.25;12244497;19;19915;-90
2022/07/25 15:05:25;;;;;;;;;;;39.10;30.90;;;37.39;28.52;100148.06;12241626;19;19934;-90
2022/07/25 15:09:27;;;;;;;;;;;39.10;31.10;;;37.76;28.24;100195.94;12243133;19;20527;-90
2022/07/25 15:13:28;;;;;;;;;;;39.10;30.80;;;37.71;28.47;100176.88;12241200;19;19926;-91
2022/07/25 15:17:29;;;;;;;;;;;39.10;30.90;;;37.92;28.18;100201.34;12240638;19;19927;-89
2022/07/25 15:21:31;;;;;;;;;;;39.10;31.10;;;37.92;28.46;100204.06;12240131;19;19931;-89
2022/07/25 15:25:32;;;;;;;;;;;39.10;30.60;;;37.90;28.21;100206.25;12240720;19;20317;-91
2022/07/25 15:29:34;;;;;;;;;;;39.10;30.80;;;37.75;27.73;100194.28;12244570;19;19922;-90
2022/07/25 15:33:36;;;;;;;;;;;39.10;30.90;;;37.75;27.80;100193.47;12240412;19;19952;-88
2022/07/25 15:37:37;;;;;;;;;;;39.00;30.40;;;37.41;27.90;100142.38;12240107;19;19990;-91
2022/07/25 15:41:39;;;;;;;;;;;38.90;30.50;;;37.39;28.00;100150.81;12237898;19;19927;-90
2022/07/25 15:45:41;;;;;;;;;;;38.90;30.70;;;37.48;28.00;100167.38;12234237;19;19917;-88
2022/07/25 15:49:43;;;;;;;;;;;38.80;30.60;;;37.47;28.20;100170.41;12240509;19;19917;-91
2022/07/25 15:53:44;;;;;;;;;;;38.80;30.80;;;37.28;28.12;100145.66;12246107;19;20302;-90
2022/07/25 15:57:45;;;;;;;;;;;38.70;31.10;;;37.08;28.07;100128.28;12251603;19;19939;-89
2022/07/25 16:01:47;;;;;;;;;;;38.60;30.70;;;36.82;28.24;100089.38;12255254;19;19911;-90
2022/07/25 16:05:48;;;;;;;;;;;38.50;30.60;;;36.83;28.20;100096.44;12256338;19;19918;-87
2022/07/25 16:09:50;;;;;;;;;;;38.40;30.60;;;37.14;27.84;100131.81;12257283;19;20242;-88
2022/07/25 16:13:52;;;;;;;;;;;38.40;30.80;;;36.83;28.15;100071.94;12254761;19;19927;-87
2022/07/25 16:17:54;;;;;;;;;;;38.40;31.00;;;37.23;28.05;100113.00;12254216;19;19907;-88
2022/07/25 16:21:56;;;;;;;;;;;38.40;30.70;;;37.16;28.13;100080.59;12254969;19;19919;-89
2022/07/25 16:25:58;;;;;;;;;;;38.50;30.80;;;37.35;28.00;100091.72;12259606;19;19919;-89
2022/07/25 16:29:59;;;;;;;;;;;38.50;30.70;;;37.07;28.20;100057.75;12259141;19;19914;-88
2022/07/25 16:34:01;;;;;;;;;;;38.50;30.70;;;36.94;27.54;100043.63;12253180;19;19907;-90
2022/07/25 16:38:03;;;;;;;;;;;38.50;30.90;;;37.04;28.16;100059.13;12254527;19;19983;-89
2022/07/25 16:42:05;;;;;;;;;;;38.50;30.80;;;37.06;27.84;100075.19;12257603;19;20255;-91
2022/07/25 16:46:06;;;;;;;;;;;38.40;30.60;;;37.12;27.84;100106.75;12256796;19;19915;-89
2022/07/25 16:50:08;;;;;;;;;;;38.40;30.60;;;36.66;27.80;100046.94;12257480;19;19922;-90
2022/07/25 16:54:10;;;;;;;;;;;38.30;30.50;;;36.87;27.85;100075.75;12252949;19;19915;-90
2022/07/25 16:58:11;;;;;;;;;;;38.30;30.70;;;36.73;27.92;100061.09;12255121;19;19922;-90
2022/07/25 17:02:12;;;;;;;;;;;38.20;30.80;;;36.68;28.22;100055.66;12260831;19;19951;-90
2022/07/25 17:06:15;;;;;;;;;;;38.20;30.50;;;36.71;27.51;100068.72;12254630;19;20013;-90
2022/07/25 17:10:16;;;;;;;;;;;38.10;30.50;;;36.76;27.65;100085.03;12256634;19;19923;-90
2022/07/25 17:14:18;;;;;;;;;;;38.00;30.40;;;36.68;27.78;100085.59;12252890;19;19919;-89
2022/07/25 17:18:19;;;;;;;;;;;37.90;30.40;;;36.59;27.86;100079.06;12255146;19;19910;-88
2022/07/25 17:22:21;;;;;;;;;;;37.90;30.50;;;36.58;27.94;100082.88;12256700;19;19931;-90
2022/07/25 17:26:22;;;;;;;;;;;37.80;30.60;;;36.54;28.25;100090.78;12260081;19;19923;-89
2022/07/25 17:30:24;;;;;;;;;;;37.80;30.70;;;36.13;28.20;100098.03;12258752;19;19919;-90
2022/07/25 17:34:25;;;;;;;;;;;37.70;30.60;;;36.21;27.93;100193.50;12257319;19;19914;-88
2022/07/25 17:38:27;;;;;;;;;;;37.60;30.20;;;35.85;28.40;100257.78;12253732;19;20239;-90
2022/07/25 17:42:28;;;;;;;;;;;37.50;30.90;;;34.77;28.60;100194.50;12250557;19;19923;-89
2022/07/25 17:46:30;;;;;;;;;;;37.10;31.50;;;33.70;29.53;100225.78;12250566;19;19915;-88
2022/07/25 17:50:31;;;;;;;;;;;36.60;31.60;;;32.57;30.22;100229.34;12250446;19;19911;-90
2022/07/25 17:54:33;;;;;;;;;;;35.80;31.70;;;31.67;30.39;100244.19;12251754;19;19923;-89
2022/07/25 17:58:35;;;;;;;;;;;35.00;31.90;;;31.16;30.53;100291.50;12252612;19;20353;-88
2022/07/25 18:02:37;;;;;;;;;;;34.20;32.30;;;30.44;30.93;100286.06;12250705;19;19931;-87
2022/07/25 18:06:38;;;;;;;;;;;33.50;32.30;;;30.35;30.94;100331.38;12252078;19;19915;-87
2022/07/25 18:10:39;;;;;;;;;;;32.90;32.60;;;29.71;31.63;100292.22;12251327;19;20633;-90
2022/07/25 18:14:41;;;;;;;;;;;32.40;32.90;;;29.33;31.47;100306.59;12251309;19;19926;-88